createdAt,value
2023-01-11T00:02:01.310Z,90
2023-01-11T00:05:26.607Z,90
2023-01-11T00:08:51.842Z,90
2023-01-11T00:12:17.256Z,90
2023-01-11T00:15:42.443Z,90
2023-01-11T00:19:07.707Z,90
2023-01-11T00:22:32.995Z,90
2023-01-11T00:25:58.283Z,90
2023-01-11T00:29:23.580Z,90
2023-01-11T00:32:48.816Z,89
2023-01-11T00:36:14.075Z,89
2023-01-11T00:39:39.355Z,89
2023-01-11T00:43:04.704Z,90
2023-01-11T00:46:30.099Z,90
2023-01-11T00:49:55.282Z,90
2023-01-11T00:53:20.572Z,90
2023-01-11T00:56:45.847Z,90
2023-01-11T01:00:11.197Z,90
2023-01-11T01:03:36.509Z,91
2023-01-11T01:07:01.767Z,91
2023-01-11T01:10:27.025Z,91
2023-01-11T01:13:52.310Z,92
2023-01-11T01:17:17.576Z,92
2023-01-11T01:20:42.872Z,92
2023-01-11T01:24:08.171Z,92
2023-01-11T01:27:33.466Z,92
2023-01-11T01:30:58.744Z,91
2023-01-11T01:34:24.060Z,91
2023-01-11T01:37:49.374Z,91
2023-01-11T01:41:14.600Z,90
2023-01-11T01:44:39.862Z,90
2023-01-11T01:48:05.126Z,90
2023-01-11T01:51:30.461Z,89
2023-01-11T01:54:55.853Z,88
2023-01-11T01:58:21.128Z,88
2023-01-11T02:01:46.450Z,88
2023-01-11T02:05:11.665Z,88
2023-01-11T02:08:36.930Z,88
2023-01-11T02:12:02.213Z,88
2023-01-11T02:15:27.475Z,88
2023-01-11T02:18:52.799Z,88
2023-01-11T02:22:18.129Z,88
2023-01-11T02:25:43.405Z,88
2023-01-11T02:29:08.709Z,88
2023-01-11T02:32:33.982Z,88
2023-01-11T02:35:59.259Z,88
2023-01-11T02:39:24.536Z,89
2023-01-11T02:42:49.872Z,89
2023-01-11T02:46:15.225Z,90
2023-01-11T02:49:40.457Z,90
2023-01-11T02:53:05.745Z,90
2023-01-11T02:56:30.982Z,90
2023-01-11T02:59:56.263Z,91
2023-01-11T03:03:21.574Z,91
2023-01-11T03:06:46.838Z,92
2023-01-11T03:10:12.088Z,92
2023-01-11T03:13:37.374Z,92
2023-01-11T03:17:02.639Z,93
2023-01-11T03:20:27.976Z,92
2023-01-11T03:23:53.219Z,93
2023-01-11T03:27:18.494Z,93
2023-01-11T03:30:43.776Z,94
2023-01-11T03:34:09.021Z,94
2023-01-11T03:37:34.319Z,94
2023-01-11T03:40:59.573Z,95
2023-01-11T03:44:24.901Z,95
2023-01-11T03:47:50.176Z,95
2023-01-11T03:51:15.429Z,95
2023-01-11T03:54:40.707Z,96
2023-01-11T03:58:05.948Z,95
2023-01-11T04:01:31.221Z,95
2023-01-11T04:04:56.490Z,95
2023-01-11T04:08:21.772Z,95
2023-01-11T04:11:47.080Z,95
2023-01-11T04:15:12.333Z,95
2023-01-11T04:18:37.583Z,96
2023-01-11T04:22:02.837Z,95
2023-01-11T04:25:28.135Z,95
2023-01-11T04:28:54.466Z,96
2023-01-11T04:32:18.669Z,96
2023-01-11T04:35:44.125Z,96
2023-01-11T04:39:09.378Z,95
2023-01-11T04:42:34.650Z,95
2023-01-11T04:45:59.984Z,95
2023-01-11T04:49:25.127Z,95
2023-01-11T04:52:50.396Z,95
2023-01-11T04:56:15.646Z,95
2023-01-11T04:59:40.891Z,95
2023-01-11T05:03:06.140Z,95
2023-01-11T05:06:31.393Z,95
2023-01-11T05:09:56.611Z,95
2023-01-11T05:13:21.866Z,95
2023-01-11T05:16:47.119Z,95
2023-01-11T05:20:12.358Z,95
2023-01-11T05:23:37.578Z,95
2023-01-11T05:27:02.833Z,95
2023-01-11T05:30:28.083Z,96
2023-01-11T05:33:53.361Z,95
2023-01-11T05:37:18.608Z,95
2023-01-11T05:40:43.943Z,96
2023-01-11T05:44:09.230Z,96
2023-01-11T05:47:34.516Z,96
2023-01-11T05:51:01.493Z,96
2023-01-11T05:54:25.301Z,96
2023-01-11T05:57:50.629Z,96
2023-01-11T06:01:15.963Z,96
2023-01-11T06:04:41.232Z,96
2023-01-11T06:08:06.521Z,96
2023-01-11T06:11:31.823Z,96
2023-01-11T06:14:57.085Z,96
2023-01-11T06:18:22.406Z,96
2023-01-11T06:21:47.672Z,97
2023-01-11T06:25:12.979Z,97
2023-01-11T06:28:38.247Z,97
2023-01-11T06:32:03.521Z,97
2023-01-11T06:35:28.834Z,97
2023-01-11T06:38:54.099Z,98
2023-01-11T06:42:19.373Z,98
2023-01-11T06:45:44.749Z,98
2023-01-11T06:49:09.949Z,98
2023-01-11T06:52:35.199Z,98
2023-01-11T06:56:00.455Z,98
2023-01-11T06:59:25.754Z,98
2023-01-11T07:02:51.066Z,98
2023-01-11T07:06:16.233Z,97
2023-01-11T07:09:41.554Z,97
2023-01-11T07:13:06.855Z,97
2023-01-11T07:16:32.187Z,97
2023-01-11T07:19:57.738Z,98
2023-01-11T07:23:23.059Z,98
2023-01-11T07:26:48.376Z,97
2023-01-11T07:30:13.692Z,97
2023-01-11T07:33:39.032Z,97
2023-01-11T07:37:04.471Z,97
2023-01-11T07:40:29.778Z,98
2023-01-11T07:43:55.049Z,98
2023-01-11T07:47:20.350Z,98
2023-01-11T07:50:45.674Z,97
2023-01-11T07:54:11.025Z,98
2023-01-11T07:57:36.295Z,98
2023-01-11T08:01:01.583Z,98
2023-01-11T08:04:26.949Z,98
2023-01-11T08:07:52.419Z,98
2023-01-11T08:11:17.742Z,98
2023-01-11T08:14:42.957Z,98
2023-01-11T08:18:08.264Z,98
2023-01-11T08:21:33.519Z,97
2023-01-11T08:24:58.779Z,95
2023-01-11T08:28:24.065Z,95
2023-01-11T08:31:49.337Z,94
2023-01-11T08:35:14.579Z,94
2023-01-11T08:38:39.805Z,94
2023-01-11T08:42:05.069Z,94
2023-01-11T08:45:30.361Z,94
2023-01-11T08:48:55.566Z,93
2023-01-11T08:52:20.815Z,94
2023-01-11T08:55:46.064Z,94
2023-01-11T08:59:11.781Z,94
2023-01-11T09:02:37.097Z,95
2023-01-11T09:06:02.371Z,96
2023-01-11T09:09:27.656Z,96
2023-01-11T09:12:52.933Z,97
2023-01-11T09:16:18.203Z,97
2023-01-11T09:19:43.513Z,98
2023-01-11T09:23:08.734Z,98
2023-01-11T09:26:34.029Z,98
2023-01-11T09:29:59.278Z,98
2023-01-11T09:33:24.533Z,98
2023-01-11T09:36:49.834Z,98
2023-01-11T09:40:15.080Z,98
2023-01-11T09:43:40.344Z,98
2023-01-11T09:47:05.600Z,98
2023-01-11T09:50:30.869Z,98
2023-01-11T09:53:56.174Z,98
2023-01-11T09:57:21.451Z,98
2023-01-11T10:00:46.743Z,98
2023-01-11T10:04:11.983Z,98
2023-01-11T10:07:37.197Z,98
2023-01-11T10:18:25.161Z,98
2023-01-11T10:18:42.467Z,97
2023-01-11T10:21:18.254Z,97
2023-01-11T10:24:44.123Z,97
2023-01-11T10:28:09.445Z,97
2023-01-11T10:31:34.680Z,97
2023-01-11T10:35:00.054Z,97
2023-01-11T10:38:25.164Z,97
2023-01-11T10:41:50.443Z,97
2023-01-11T10:45:15.685Z,97
2023-01-11T10:48:40.900Z,97
2023-01-11T10:52:06.137Z,96
2023-01-11T10:58:56.632Z,96
2023-01-11T11:02:22.693Z,96
2023-01-11T11:05:47.121Z,97
2023-01-11T11:09:12.370Z,96
2023-01-11T11:12:37.618Z,96
2023-01-11T11:16:02.929Z,96
2023-01-11T11:19:28.144Z,96
2023-01-11T11:22:53.392Z,97
2023-01-11T11:26:18.695Z,96
2023-01-11T11:29:43.955Z,96
2023-01-11T11:33:09.177Z,96
2023-01-11T11:36:34.448Z,97
2023-01-11T11:39:59.709Z,97
2023-01-11T11:43:24.965Z,97
2023-01-11T11:46:50.188Z,97
2023-01-11T11:50:17.015Z,98
2023-01-11T11:53:40.814Z,98
2023-01-11T11:57:05.942Z,98
2023-01-11T12:00:31.209Z,98
2023-01-11T12:03:56.492Z,98
2023-01-11T12:07:21.740Z,98
2023-01-11T12:10:47.057Z,98
2023-01-11T12:14:12.234Z,98
2023-01-11T12:17:37.489Z,98
2023-01-11T12:21:02.767Z,97
2023-01-11T12:24:28.264Z,97
2023-01-11T12:27:53.319Z,97
2023-01-11T12:31:18.551Z,97
2023-01-11T12:34:43.826Z,97
2023-01-11T12:38:09.118Z,97
2023-01-11T12:41:34.404Z,97
2023-01-11T12:44:59.730Z,97
2023-01-11T12:48:25.006Z,97
2023-01-11T12:51:50.311Z,97
2023-01-11T12:55:15.605Z,97
2023-01-11T12:58:40.880Z,96
2023-01-11T13:02:06.222Z,96
2023-01-11T13:05:31.474Z,96
2023-01-11T13:08:56.898Z,96
2023-01-11T13:12:22.225Z,96
2023-01-11T13:15:47.525Z,96
2023-01-11T13:19:12.825Z,96
2023-01-11T13:22:38.104Z,96
2023-01-11T13:26:03.426Z,96
2023-01-11T13:29:28.793Z,95
2023-01-11T13:32:54.165Z,96
2023-01-11T13:36:23.508Z,96
2023-01-11T13:39:44.702Z,95
2023-01-11T13:43:10.010Z,96
2023-01-11T13:46:35.373Z,96
2023-01-11T13:50:00.607Z,96
2023-01-11T13:53:25.968Z,96
2023-01-11T13:56:51.196Z,96
2023-01-11T14:00:16.495Z,95
2023-01-11T14:03:41.821Z,96
2023-01-11T14:07:07.099Z,95
2023-01-11T14:10:32.512Z,96
2023-01-11T14:13:57.699Z,96
2023-01-11T14:17:22.970Z,96
2023-01-11T14:20:48.401Z,96
2023-01-11T14:24:13.687Z,96
2023-01-11T14:27:39.058Z,95
2023-01-11T15:06:14.603Z,95
2023-01-11T15:09:40.039Z,95
2023-01-11T15:13:05.309Z,95
2023-01-11T15:16:30.649Z,95
2023-01-11T15:19:55.844Z,96
2023-01-11T15:23:21.206Z,96
2023-01-11T15:26:47.024Z,96
2023-01-11T15:30:12.271Z,96
2023-01-11T15:33:37.669Z,96
2023-01-11T15:37:03.070Z,96
2023-01-11T15:40:28.440Z,95
2023-01-11T15:43:53.736Z,95
2023-01-11T15:47:19.042Z,95
2023-01-11T15:50:45.107Z,94
2023-01-11T15:54:10.468Z,94
2023-01-11T15:57:36.895Z,94
2023-01-11T16:01:02.780Z,94
2023-01-11T16:04:28.104Z,94
2023-01-11T16:07:53.908Z,94
2023-01-11T16:11:19.252Z,94
2023-01-11T16:14:44.645Z,93
2023-01-11T16:18:10.114Z,93
2023-01-11T16:21:35.526Z,94
2023-01-11T16:25:00.882Z,94
2023-01-11T16:28:26.414Z,94
2023-01-11T16:31:53.663Z,94
2023-01-11T16:35:18.930Z,94
2023-01-11T16:38:44.236Z,95
2023-01-11T16:42:09.628Z,95
2023-01-11T16:45:35.025Z,94
2023-01-11T16:49:00.278Z,90
2023-01-11T16:52:25.578Z,88
2023-01-11T16:55:50.956Z,89
2023-01-11T16:59:16.246Z,90
2023-01-11T17:02:41.569Z,90
2023-01-11T17:06:06.852Z,90
2023-01-11T17:09:32.076Z,90
2023-01-11T17:12:57.360Z,90
2023-01-11T17:16:22.731Z,89
2023-01-11T17:19:47.897Z,90
2023-01-11T17:23:13.405Z,89
2023-01-11T17:26:38.646Z,89
2023-01-11T17:30:03.850Z,89
2023-01-11T17:33:29.536Z,88
2023-01-11T17:36:54.800Z,89
2023-01-11T17:40:20.079Z,87
2023-01-11T17:43:45.298Z,87
2023-01-11T17:47:10.567Z,88
2023-01-11T17:50:35.807Z,88
2023-01-11T17:54:01.108Z,89
2023-01-11T17:57:26.353Z,89
2023-01-11T18:00:51.572Z,89
2023-01-11T18:04:18.924Z,88
2023-01-11T18:07:42.064Z,88
2023-01-11T18:11:07.351Z,88
2023-01-11T18:14:32.622Z,88
2023-01-11T18:17:57.852Z,88
2023-01-11T18:21:23.149Z,89
2023-01-11T18:24:48.400Z,89
2023-01-11T18:28:13.657Z,89
2023-01-11T18:31:39.042Z,89
2023-01-11T18:35:04.320Z,89
2023-01-11T18:38:29.694Z,89
2023-01-11T18:41:54.961Z,89
2023-01-11T18:45:20.293Z,89
2023-01-11T18:48:45.623Z,88
2023-01-11T18:52:10.930Z,88
2023-01-11T18:55:36.317Z,88
2023-01-11T18:59:01.626Z,88
2023-01-11T19:02:27.822Z,88
2023-01-11T19:05:53.239Z,88
2023-01-11T19:09:18.568Z,88
2023-01-11T19:12:43.918Z,88
2023-01-11T19:16:09.311Z,88
2023-01-11T19:19:34.529Z,88
2023-01-11T19:22:59.905Z,89
2023-01-11T19:26:25.206Z,88
2023-01-11T19:29:50.556Z,88
2023-01-11T19:33:15.916Z,88
2023-01-11T19:36:41.267Z,88
2023-01-11T19:40:06.717Z,89
2023-01-11T19:43:32.068Z,89
2023-01-11T19:47:10.192Z,90
2023-01-11T19:50:22.795Z,91
2023-01-11T19:53:48.138Z,90
2023-01-11T19:57:13.460Z,90
2023-01-11T20:00:38.776Z,90
2023-01-11T20:04:04.076Z,90
2023-01-11T20:07:29.375Z,90
2023-01-11T20:10:54.703Z,90
2023-01-11T20:14:20.018Z,90
2023-01-11T20:17:45.318Z,90
2023-01-11T20:21:10.611Z,90
2023-01-11T20:24:35.892Z,90
2023-01-11T20:28:01.210Z,90
2023-01-11T20:31:26.613Z,90
2023-01-11T20:34:51.843Z,90
2023-01-11T20:38:17.192Z,90
2023-01-11T20:41:42.559Z,90
2023-01-11T20:45:07.840Z,89
2023-01-11T20:48:33.240Z,89
2023-01-11T20:51:58.470Z,89
2023-01-11T20:55:23.689Z,90
2023-01-11T20:58:48.950Z,89
2023-01-11T21:02:14.190Z,90
2023-01-11T21:05:39.529Z,89
2023-01-11T21:09:04.695Z,90
2023-01-11T21:12:29.958Z,90
2023-01-11T21:15:55.209Z,90
2023-01-11T21:19:20.432Z,90
2023-01-11T21:22:45.717Z,90
2023-01-11T21:26:10.943Z,90
2023-01-11T21:29:36.186Z,90
2023-01-11T21:33:01.437Z,90
2023-01-11T21:36:26.681Z,89
2023-01-11T21:39:51.933Z,89
2023-01-11T21:43:17.151Z,90
2023-01-11T21:46:42.482Z,89
2023-01-11T21:50:07.643Z,89
2023-01-11T21:53:32.883Z,88
2023-01-11T21:56:58.177Z,88
2023-01-11T22:00:23.407Z,89
2023-01-11T22:03:48.702Z,89
2023-01-11T22:07:13.918Z,89
2023-01-11T22:10:39.173Z,88
2023-01-11T22:14:04.471Z,88
2023-01-11T22:17:29.682Z,88
2023-01-11T22:20:54.944Z,89
2023-01-11T22:24:20.176Z,88
2023-01-11T22:27:45.419Z,89
2023-01-11T22:31:10.744Z,88
2023-01-11T22:34:35.915Z,89
2023-01-11T22:38:01.155Z,88
2023-01-11T22:41:26.409Z,88
2023-01-11T22:44:51.657Z,88
2023-01-11T22:48:16.942Z,89
2023-01-11T22:51:42.173Z,88
2023-01-11T22:55:07.410Z,88
2023-01-11T22:58:32.667Z,88
2023-01-11T23:01:57.910Z,88
2023-01-11T23:05:23.199Z,87
2023-01-11T23:08:48.453Z,87
2023-01-11T23:12:13.698Z,87
2023-01-11T23:15:38.918Z,87
2023-01-11T23:19:04.168Z,88
2023-01-11T23:22:29.448Z,88
2023-01-11T23:25:54.706Z,88
2023-01-11T23:29:19.946Z,88
2023-01-11T23:32:45.213Z,88
2023-01-11T23:36:10.473Z,88
2023-01-11T23:39:35.778Z,87
2023-01-11T23:43:00.990Z,88
2023-01-11T23:46:26.239Z,88
2023-01-11T23:49:51.489Z,88
2023-01-11T23:53:16.737Z,88
2023-01-11T23:56:42.016Z,88
